sensor_id;sensor_type;location;lat;lon;timestamp;temperature;humidity
36444;DHT22;24692;45.642;13.806;2023-06-10T00:01:24;20.60;99.90
36444;DHT22;24692;45.642;13.806;2023-06-10T00:03:50;20.60;99.90
36444;DHT22;24692;45.642;13.806;2023-06-10T00:06:17;20.50;99.90
36444;DHT22;24692;45.642;13.806;2023-06-10T00:08:43;20.50;99.90
36444;DHT22;24692;45.642;13.806;2023-06-10T00:11:09;20.50;99.90
36444;DHT22;24692;45.642;13.806;2023-06-10T00:13:35;20.50;99.90
36444;DHT22;24692;45.642;13.806;2023-06-10T00:16:02;20.40;99.90
36444;DHT22;24692;45.642;13.806;2023-06-10T00:18:28;20.40;99.90
36444;DHT22;24692;45.642;13.806;2023-06-10T00:20:57;20.40;99.90
36444;DHT22;24692;45.642;13.806;2023-06-10T00:23:22;20.30;99.90
36444;DHT22;24692;45.642;13.806;2023-06-10T00:25:50;20.20;99.90
36444;DHT22;24692;45.642;13.806;2023-06-10T00:28:16;20.20;99.90
36444;DHT22;24692;45.642;13.806;2023-06-10T00:30:41;20.20;99.90
36444;DHT22;24692;45.642;13.806;2023-06-10T00:33:07;20.10;99.90
36444;DHT22;24692;45.642;13.806;2023-06-10T00:35:32;20.10;99.90
36444;DHT22;24692;45.642;13.806;2023-06-10T00:37:58;20.00;99.90
36444;DHT22;24692;45.642;13.806;2023-06-10T00:40:24;20.10;99.90
36444;DHT22;24692;45.642;13.806;2023-06-10T00:42:49;20.20;99.90
36444;DHT22;24692;45.642;13.806;2023-06-10T00:45:15;20.10;99.90
36444;DHT22;24692;45.642;13.806;2023-06-10T00:47:41;20.10;99.90
36444;DHT22;24692;45.642;13.806;2023-06-10T00:50:06;20.10;99.90
36444;DHT22;24692;45.642;13.806;2023-06-10T00:52:33;20.10;99.90
36444;DHT22;24692;45.642;13.806;2023-06-10T00:55:00;20.20;99.90
36444;DHT22;24692;45.642;13.806;2023-06-10T00:57:26;20.10;99.90
36444;DHT22;24692;45.642;13.806;2023-06-10T00:59:52;20.10;99.90
36444;DHT22;24692;45.642;13.806;2023-06-10T01:02:17;20.10;99.90
36444;DHT22;24692;45.642;13.806;2023-06-10T01:04:43;20.00;99.90
36444;DHT22;24692;45.642;13.806;2023-06-10T01:07:22;20.00;99.90
36444;DHT22;24692;45.642;13.806;2023-06-10T01:10:02;20.00;99.90
36444;DHT22;24692;45.642;13.806;2023-06-10T01:12:46;20.00;99.90
36444;DHT22;24692;45.642;13.806;2023-06-10T01:15:15;20.00;99.90
36444;DHT22;24692;45.642;13.806;2023-06-10T01:18:01;20.00;99.90
36444;DHT22;24692;45.642;13.806;2023-06-10T01:20:29;20.00;99.90
36444;DHT22;24692;45.642;13.806;2023-06-10T01:22:55;20.00;99.90
36444;DHT22;24692;45.642;13.806;2023-06-10T01:25:25;20.00;99.90
36444;DHT22;24692;45.642;13.806;2023-06-10T01:30:32;20.10;99.90
36444;DHT22;24692;45.642;13.806;2023-06-10T01:33:06;20.10;99.90
36444;DHT22;24692;45.642;13.806;2023-06-10T01:35:33;20.10;99.90
36444;DHT22;24692;45.642;13.806;2023-06-10T01:38:02;20.10;99.90
36444;DHT22;24692;45.642;13.806;2023-06-10T01:40:29;20.10;99.90
36444;DHT22;24692;45.642;13.806;2023-06-10T01:42:56;20.10;99.90
36444;DHT22;24692;45.642;13.806;2023-06-10T01:45:22;20.00;99.90
36444;DHT22;24692;45.642;13.806;2023-06-10T01:47:47;20.00;99.90
36444;DHT22;24692;45.642;13.806;2023-06-10T01:50:13;20.00;99.90
36444;DHT22;24692;45.642;13.806;2023-06-10T01:52:40;20.00;99.90
36444;DHT22;24692;45.642;13.806;2023-06-10T01:55:06;20.00;99.90
36444;DHT22;24692;45.642;13.806;2023-06-10T01:57:31;20.00;99.90
36444;DHT22;24692;45.642;13.806;2023-06-10T01:59:57;20.10;99.90
36444;DHT22;24692;45.642;13.806;2023-06-10T02:02:23;20.10;99.90
36444;DHT22;24692;45.642;13.806;2023-06-10T02:04:50;20.10;99.90
36444;DHT22;24692;45.642;13.806;2023-06-10T02:07:15;20.10;99.90
36444;DHT22;24692;45.642;13.806;2023-06-10T02:09:41;20.10;99.90
36444;DHT22;24692;45.642;13.806;2023-06-10T02:12:07;20.00;99.90
36444;DHT22;24692;45.642;13.806;2023-06-10T02:14:33;19.90;99.90
36444;DHT22;24692;45.642;13.806;2023-06-10T02:16:59;19.90;99.90
36444;DHT22;24692;45.642;13.806;2023-06-10T02:19:26;19.90;99.90
36444;DHT22;24692;45.642;13.806;2023-06-10T02:21:53;19.80;99.90
36444;DHT22;24692;45.642;13.806;2023-06-10T02:24:18;19.80;99.90
36444;DHT22;24692;45.642;13.806;2023-06-10T02:26:44;19.70;99.90
36444;DHT22;24692;45.642;13.806;2023-06-10T02:29:10;19.70;99.90
36444;DHT22;24692;45.642;13.806;2023-06-10T02:31:36;19.70;99.90
36444;DHT22;24692;45.642;13.806;2023-06-10T02:34:03;19.60;99.90
36444;DHT22;24692;45.642;13.806;2023-06-10T02:36:29;19.60;99.90
36444;DHT22;24692;45.642;13.806;2023-06-10T02:38:55;19.60;99.90
36444;DHT22;24692;45.642;13.806;2023-06-10T02:41:20;19.60;99.90
36444;DHT22;24692;45.642;13.806;2023-06-10T02:43:47;19.60;99.90
36444;DHT22;24692;45.642;13.806;2023-06-10T02:46:13;19.60;99.90
36444;DHT22;24692;45.642;13.806;2023-06-10T02:48:45;19.60;99.90
36444;DHT22;24692;45.642;13.806;2023-06-10T02:51:11;19.70;99.90
36444;DHT22;24692;45.642;13.806;2023-06-10T02:53:37;19.70;99.90
36444;DHT22;24692;45.642;13.806;2023-06-10T02:56:02;19.60;99.90
36444;DHT22;24692;45.642;13.806;2023-06-10T02:58:28;19.60;99.90
36444;DHT22;24692;45.642;13.806;2023-06-10T03:00:54;19.60;99.90
36444;DHT22;24692;45.642;13.806;2023-06-10T03:03:20;19.60;99.90
36444;DHT22;24692;45.642;13.806;2023-06-10T03:05:48;19.70;99.90
36444;DHT22;24692;45.642;13.806;2023-06-10T03:08:14;19.60;99.90
36444;DHT22;24692;45.642;13.806;2023-06-10T03:10:39;19.50;99.90
36444;DHT22;24692;45.642;13.806;2023-06-10T03:13:05;19.50;99.90
36444;DHT22;24692;45.642;13.806;2023-06-10T03:15:31;19.50;99.90
36444;DHT22;24692;45.642;13.806;2023-06-10T03:18:01;19.50;99.90
36444;DHT22;24692;45.642;13.806;2023-06-10T03:20:27;19.50;99.90
36444;DHT22;24692;45.642;13.806;2023-06-10T03:22:54;19.40;99.90
36444;DHT22;24692;45.642;13.806;2023-06-10T03:25:19;19.50;99.90
36444;DHT22;24692;45.642;13.806;2023-06-10T03:27:46;19.40;99.90
36444;DHT22;24692;45.642;13.806;2023-06-10T03:30:13;19.40;99.90
36444;DHT22;24692;45.642;13.806;2023-06-10T03:32:39;19.40;99.90
36444;DHT22;24692;45.642;13.806;2023-06-10T03:35:06;19.40;99.90
36444;DHT22;24692;45.642;13.806;2023-06-10T03:37:32;19.40;99.90
36444;DHT22;24692;45.642;13.806;2023-06-10T03:39:58;19.40;99.90
36444;DHT22;24692;45.642;13.806;2023-06-10T03:42:24;19.40;99.90
36444;DHT22;24692;45.642;13.806;2023-06-10T03:44:50;19.40;99.90
36444;DHT22;24692;45.642;13.806;2023-06-10T03:47:15;19.40;99.90
36444;DHT22;24692;45.642;13.806;2023-06-10T03:49:41;19.40;99.90
36444;DHT22;24692;45.642;13.806;2023-06-10T03:52:07;19.40;99.90
36444;DHT22;24692;45.642;13.806;2023-06-10T03:54:32;19.50;99.90
36444;DHT22;24692;45.642;13.806;2023-06-10T03:57:00;19.60;99.90
36444;DHT22;24692;45.642;13.806;2023-06-10T03:59:26;19.60;99.90
36444;DHT22;24692;45.642;13.806;2023-06-10T04:01:51;19.50;99.90
36444;DHT22;24692;45.642;13.806;2023-06-10T04:04:17;19.60;99.90
36444;DHT22;24692;45.642;13.806;2023-06-10T04:06:43;19.60;99.90
36444;DHT22;24692;45.642;13.806;2023-06-10T04:09:10;19.60;99.90
36444;DHT22;24692;45.642;13.806;2023-06-10T04:11:36;19.60;99.90
36444;DHT22;24692;45.642;13.806;2023-06-10T04:14:02;19.70;99.90
36444;DHT22;24692;45.642;13.806;2023-06-10T04:16:28;19.70;99.90
36444;DHT22;24692;45.642;13.806;2023-06-10T04:18:54;19.70;99.90
36444;DHT22;24692;45.642;13.806;2023-06-10T04:21:20;19.80;99.90
36444;DHT22;24692;45.642;13.806;2023-06-10T04:23:45;19.90;99.90
36444;DHT22;24692;45.642;13.806;2023-06-10T04:26:11;19.90;99.90
36444;DHT22;24692;45.642;13.806;2023-06-10T04:28:38;20.00;99.90
36444;DHT22;24692;45.642;13.806;2023-06-10T04:31:03;20.00;99.90
36444;DHT22;24692;45.642;13.806;2023-06-10T04:33:30;20.00;99.90
36444;DHT22;24692;45.642;13.806;2023-06-10T04:35:56;20.10;99.90
36444;DHT22;24692;45.642;13.806;2023-06-10T04:38:21;20.20;99.90
36444;DHT22;24692;45.642;13.806;2023-06-10T04:40:47;20.20;99.90
36444;DHT22;24692;45.642;13.806;2023-06-10T04:43:13;20.30;99.90
36444;DHT22;24692;45.642;13.806;2023-06-10T04:45:39;20.40;99.90
36444;DHT22;24692;45.642;13.806;2023-06-10T04:48:05;20.50;99.90
36444;DHT22;24692;45.642;13.806;2023-06-10T04:50:31;20.50;99.90
36444;DHT22;24692;45.642;13.806;2023-06-10T04:52:58;20.60;99.90
36444;DHT22;24692;45.642;13.806;2023-06-10T04:55:24;20.70;99.90
36444;DHT22;24692;45.642;13.806;2023-06-10T04:57:51;20.80;99.90
36444;DHT22;24692;45.642;13.806;2023-06-10T05:00:17;20.90;99.90
36444;DHT22;24692;45.642;13.806;2023-06-10T05:02:43;21.00;99.90
36444;DHT22;24692;45.642;13.806;2023-06-10T05:05:10;21.10;99.90
36444;DHT22;24692;45.642;13.806;2023-06-10T05:07:36;21.10;99.90
36444;DHT22;24692;45.642;13.806;2023-06-10T05:10:02;21.20;99.90
36444;DHT22;24692;45.642;13.806;2023-06-10T05:12:28;21.20;99.90
36444;DHT22;24692;45.642;13.806;2023-06-10T05:14:54;21.30;99.90
36444;DHT22;24692;45.642;13.806;2023-06-10T05:17:20;21.40;99.90
36444;DHT22;24692;45.642;13.806;2023-06-10T05:19:45;21.40;99.90
36444;DHT22;24692;45.642;13.806;2023-06-10T05:22:12;21.40;99.90
36444;DHT22;24692;45.642;13.806;2023-06-10T05:24:38;21.50;99.90
36444;DHT22;24692;45.642;13.806;2023-06-10T05:27:04;21.60;99.90
36444;DHT22;24692;45.642;13.806;2023-06-10T05:29:32;21.70;99.90
36444;DHT22;24692;45.642;13.806;2023-06-10T05:31:57;21.80;99.90
36444;DHT22;24692;45.642;13.806;2023-06-10T05:34:27;21.90;99.90
36444;DHT22;24692;45.642;13.806;2023-06-10T05:36:53;22.00;99.90
36444;DHT22;24692;45.642;13.806;2023-06-10T05:39:18;22.10;99.90
36444;DHT22;24692;45.642;13.806;2023-06-10T05:41:44;22.30;99.90
36444;DHT22;24692;45.642;13.806;2023-06-10T05:44:10;22.40;99.90
36444;DHT22;24692;45.642;13.806;2023-06-10T05:46:35;22.50;99.90
36444;DHT22;24692;45.642;13.806;2023-06-10T05:49:01;22.50;99.90
36444;DHT22;24692;45.642;13.806;2023-06-10T05:51:26;22.60;99.90
36444;DHT22;24692;45.642;13.806;2023-06-10T05:53:54;22.70;99.90
36444;DHT22;24692;45.642;13.806;2023-06-10T05:56:19;22.90;99.90
36444;DHT22;24692;45.642;13.806;2023-06-10T05:58:48;23.00;99.90
36444;DHT22;24692;45.642;13.806;2023-06-10T06:01:13;23.10;99.90
36444;DHT22;24692;45.642;13.806;2023-06-10T06:03:39;23.30;99.90
36444;DHT22;24692;45.642;13.806;2023-06-10T06:06:05;23.10;99.90
36444;DHT22;24692;45.642;13.806;2023-06-10T06:08:31;22.90;99.90
36444;DHT22;24692;45.642;13.806;2023-06-10T06:10:56;23.10;99.90
36444;DHT22;24692;45.642;13.806;2023-06-10T06:13:22;23.20;99.90
36444;DHT22;24692;45.642;13.806;2023-06-10T06:15:48;23.40;99.90
36444;DHT22;24692;45.642;13.806;2023-06-10T06:18:14;23.60;99.90
36444;DHT22;24692;45.642;13.806;2023-06-10T06:20:40;23.60;99.90
36444;DHT22;24692;45.642;13.806;2023-06-10T06:23:05;23.60;99.90
36444;DHT22;24692;45.642;13.806;2023-06-10T06:25:31;23.60;99.90
36444;DHT22;24692;45.642;13.806;2023-06-10T06:27:56;23.60;99.90
36444;DHT22;24692;45.642;13.806;2023-06-10T06:30:22;23.80;99.90
36444;DHT22;24692;45.642;13.806;2023-06-10T06:32:48;23.70;99.90
36444;DHT22;24692;45.642;13.806;2023-06-10T06:35:13;23.70;99.90
36444;DHT22;24692;45.642;13.806;2023-06-10T06:37:39;23.60;99.90
36444;DHT22;24692;45.642;13.806;2023-06-10T06:40:05;23.60;99.90
36444;DHT22;24692;45.642;13.806;2023-06-10T06:42:31;23.30;99.90
36444;DHT22;24692;45.642;13.806;2023-06-10T06:44:56;23.20;99.90
36444;DHT22;24692;45.642;13.806;2023-06-10T06:47:22;23.20;99.90
36444;DHT22;24692;45.642;13.806;2023-06-10T06:49:48;23.20;99.90
36444;DHT22;24692;45.642;13.806;2023-06-10T06:52:17;23.10;99.90
36444;DHT22;24692;45.642;13.806;2023-06-10T06:54:42;23.30;99.90
36444;DHT22;24692;45.642;13.806;2023-06-10T06:57:08;23.10;99.90
36444;DHT22;24692;45.642;13.806;2023-06-10T06:59:34;23.00;99.90
36444;DHT22;24692;45.642;13.806;2023-06-10T07:02:00;23.00;99.90
36444;DHT22;24692;45.642;13.806;2023-06-10T07:04:25;23.00;99.90
36444;DHT22;24692;45.642;13.806;2023-06-10T07:06:51;23.10;99.90
36444;DHT22;24692;45.642;13.806;2023-06-10T07:09:17;23.40;99.90
36444;DHT22;24692;45.642;13.806;2023-06-10T07:11:42;23.90;99.90
36444;DHT22;24692;45.642;13.806;2023-06-10T07:14:08;24.10;99.90
36444;DHT22;24692;45.642;13.806;2023-06-10T07:16:34;24.30;99.90
36444;DHT22;24692;45.642;13.806;2023-06-10T07:19:00;24.40;99.90
36444;DHT22;24692;45.642;13.806;2023-06-10T07:21:25;24.30;99.90
36444;DHT22;24692;45.642;13.806;2023-06-10T07:23:51;24.50;99.90
36444;DHT22;24692;45.642;13.806;2023-06-10T07:26:21;24.40;99.90
36444;DHT22;24692;45.642;13.806;2023-06-10T07:28:47;24.30;99.90
36444;DHT22;24692;45.642;13.806;2023-06-10T07:31:12;24.30;99.90
36444;DHT22;24692;45.642;13.806;2023-06-10T07:33:38;24.30;99.90
36444;DHT22;24692;45.642;13.806;2023-06-10T07:36:07;24.40;99.90
36444;DHT22;24692;45.642;13.806;2023-06-10T07:38:32;24.50;99.90
36444;DHT22;24692;45.642;13.806;2023-06-10T07:40:59;24.30;99.90
36444;DHT22;24692;45.642;13.806;2023-06-10T07:43:25;24.60;99.90
36444;DHT22;24692;45.642;13.806;2023-06-10T07:45:50;25.00;99.90
36444;DHT22;24692;45.642;13.806;2023-06-10T07:48:18;25.20;99.90
36444;DHT22;24692;45.642;13.806;2023-06-10T07:50:43;25.40;99.90
36444;DHT22;24692;45.642;13.806;2023-06-10T07:53:09;25.20;99.90
36444;DHT22;24692;45.642;13.806;2023-06-10T07:55:35;25.40;99.90
36444;DHT22;24692;45.642;13.806;2023-06-10T07:58:00;25.20;99.90
36444;DHT22;24692;45.642;13.806;2023-06-10T08:00:26;25.40;99.90
36444;DHT22;24692;45.642;13.806;2023-06-10T08:02:51;25.20;99.90
36444;DHT22;24692;45.642;13.806;2023-06-10T08:05:17;25.30;99.90
36444;DHT22;24692;45.642;13.806;2023-06-10T08:07:43;25.10;99.90
36444;DHT22;24692;45.642;13.806;2023-06-10T08:10:09;24.90;99.90
36444;DHT22;24692;45.642;13.806;2023-06-10T08:12:35;25.40;99.90
36444;DHT22;24692;45.642;13.806;2023-06-10T08:15:02;25.10;99.90
36444;DHT22;24692;45.642;13.806;2023-06-10T08:17:30;25.10;99.90
36444;DHT22;24692;45.642;13.806;2023-06-10T08:19:56;25.40;99.90
36444;DHT22;24692;45.642;13.806;2023-06-10T08:22:21;25.30;99.90
36444;DHT22;24692;45.642;13.806;2023-06-10T08:24:47;25.50;99.90
36444;DHT22;24692;45.642;13.806;2023-06-10T08:27:13;25.70;99.90
36444;DHT22;24692;45.642;13.806;2023-06-10T08:29:39;25.70;99.90
36444;DHT22;24692;45.642;13.806;2023-06-10T08:32:05;26.20;99.90
36444;DHT22;24692;45.642;13.806;2023-06-10T08:34:33;26.50;99.90
36444;DHT22;24692;45.642;13.806;2023-06-10T08:36:59;26.80;99.90
36444;DHT22;24692;45.642;13.806;2023-06-10T08:39:25;26.90;99.90
36444;DHT22;24692;45.642;13.806;2023-06-10T08:44:36;27.30;99.90
36444;DHT22;24692;45.642;13.806;2023-06-10T08:47:16;27.20;99.90
36444;DHT22;24692;45.642;13.806;2023-06-10T08:49:46;26.80;99.90
36444;DHT22;24692;45.642;13.806;2023-06-10T08:52:21;26.50;99.90
36444;DHT22;24692;45.642;13.806;2023-06-10T08:54:59;26.40;99.90
36444;DHT22;24692;45.642;13.806;2023-06-10T08:57:26;26.40;99.90
36444;DHT22;24692;45.642;13.806;2023-06-10T08:59:56;26.90;99.90
36444;DHT22;24692;45.642;13.806;2023-06-10T09:02:23;27.20;99.90
36444;DHT22;24692;45.642;13.806;2023-06-10T09:04:50;27.20;99.90
36444;DHT22;24692;45.642;13.806;2023-06-10T09:07:16;27.10;99.90
36444;DHT22;24692;45.642;13.806;2023-06-10T09:09:43;27.10;99.90
36444;DHT22;24692;45.642;13.806;2023-06-10T09:12:10;27.60;99.90
36444;DHT22;24692;45.642;13.806;2023-06-10T09:14:36;27.70;99.90
36444;DHT22;24692;45.642;13.806;2023-06-10T09:17:03;28.50;99.90
36444;DHT22;24692;45.642;13.806;2023-06-10T09:19:29;28.70;99.90
36444;DHT22;24692;45.642;13.806;2023-06-10T09:21:54;29.30;99.90
36444;DHT22;24692;45.642;13.806;2023-06-10T09:24:24;28.30;99.90
36444;DHT22;24692;45.642;13.806;2023-06-10T09:26:50;27.50;99.90
36444;DHT22;24692;45.642;13.806;2023-06-10T09:29:17;28.00;99.90
36444;DHT22;24692;45.642;13.806;2023-06-10T09:31:44;28.40;99.90
36444;DHT22;24692;45.642;13.806;2023-06-10T09:34:12;28.90;99.90
36444;DHT22;24692;45.642;13.806;2023-06-10T09:36:39;28.50;99.90
36444;DHT22;24692;45.642;13.806;2023-06-10T09:39:13;27.90;99.90
36444;DHT22;24692;45.642;13.806;2023-06-10T09:41:41;28.00;99.90
36444;DHT22;24692;45.642;13.806;2023-06-10T09:44:20;28.50;99.90
36444;DHT22;24692;45.642;13.806;2023-06-10T09:46:47;28.20;99.90
36444;DHT22;24692;45.642;13.806;2023-06-10T09:49:13;28.60;99.90
36444;DHT22;24692;45.642;13.806;2023-06-10T09:51:59;28.60;99.90
36444;DHT22;24692;45.642;13.806;2023-06-10T09:54:31;28.10;99.90
36444;DHT22;24692;45.642;13.806;2023-06-10T09:56:57;27.90;99.90
36444;DHT22;24692;45.642;13.806;2023-06-10T09:59:28;27.90;99.90
36444;DHT22;24692;45.642;13.806;2023-06-10T10:01:56;28.00;99.90
36444;DHT22;24692;45.642;13.806;2023-06-10T10:04:26;28.60;99.90
36444;DHT22;24692;45.642;13.806;2023-06-10T10:06:52;29.30;99.90
36444;DHT22;24692;45.642;13.806;2023-06-10T10:09:18;29.60;99.90
36444;DHT22;24692;45.642;13.806;2023-06-10T10:11:44;29.40;99.90
36444;DHT22;24692;45.642;13.806;2023-06-10T10:14:11;29.20;99.90
36444;DHT22;24692;45.642;13.806;2023-06-10T10:16:40;29.80;99.90
36444;DHT22;24692;45.642;13.806;2023-06-10T10:19:19;29.30;99.90
36444;DHT22;24692;45.642;13.806;2023-06-10T10:22:01;29.70;99.90
36444;DHT22;24692;45.642;13.806;2023-06-10T10:24:33;29.40;99.90
36444;DHT22;24692;45.642;13.806;2023-06-10T10:27:02;29.30;99.90
36444;DHT22;24692;45.642;13.806;2023-06-10T10:29:39;29.70;99.90
36444;DHT22;24692;45.642;13.806;2023-06-10T10:32:07;29.40;99.90
36444;DHT22;24692;45.642;13.806;2023-06-10T10:34:51;29.40;99.90
36444;DHT22;24692;45.642;13.806;2023-06-10T10:37:20;29.70;99.90
36444;DHT22;24692;45.642;13.806;2023-06-10T10:39:45;29.90;99.90
36444;DHT22;24692;45.642;13.806;2023-06-10T10:42:12;30.50;99.90
36444;DHT22;24692;45.642;13.806;2023-06-10T10:44:38;30.90;99.90
36444;DHT22;24692;45.642;13.806;2023-06-10T10:47:08;30.80;99.90
36444;DHT22;24692;45.642;13.806;2023-06-10T10:49:35;30.70;99.90
36444;DHT22;24692;45.642;13.806;2023-06-10T10:52:03;29.90;99.90
36444;DHT22;24692;45.642;13.806;2023-06-10T10:54:36;30.30;99.90
36444;DHT22;24692;45.642;13.806;2023-06-10T10:57:09;31.10;99.90
36444;DHT22;24692;45.642;13.806;2023-06-10T10:59:56;30.60;99.90
36444;DHT22;24692;45.642;13.806;2023-06-10T11:02:37;30.70;99.90
36444;DHT22;24692;45.642;13.806;2023-06-10T11:05:06;30.10;99.90
36444;DHT22;24692;45.642;13.806;2023-06-10T11:07:33;30.20;99.90
36444;DHT22;24692;45.642;13.806;2023-06-10T11:12:51;31.50;99.90
36444;DHT22;24692;45.642;13.806;2023-06-10T11:15:24;31.30;99.90
36444;DHT22;24692;45.642;13.806;2023-06-10T11:31:26;30.20;99.90
36444;DHT22;24692;45.642;13.806;2023-06-10T11:36:22;31.20;99.90
36444;DHT22;24692;45.642;13.806;2023-06-10T11:38:49;32.00;99.90
36444;DHT22;24692;45.642;13.806;2023-06-10T11:41:15;31.30;99.90
36444;DHT22;24692;45.642;13.806;2023-06-10T11:43:46;30.80;99.90
36444;DHT22;24692;45.642;13.806;2023-06-10T11:46:13;30.40;99.90
36444;DHT22;24692;45.642;13.806;2023-06-10T11:48:39;30.90;99.90
36444;DHT22;24692;45.642;13.806;2023-06-10T11:51:08;30.70;99.90
36444;DHT22;24692;45.642;13.806;2023-06-10T11:53:34;30.50;99.90
36444;DHT22;24692;45.642;13.806;2023-06-10T11:56:00;30.10;99.90
36444;DHT22;24692;45.642;13.806;2023-06-10T11:58:26;29.70;99.90
36444;DHT22;24692;45.642;13.806;2023-06-10T12:00:53;29.80;99.90
36444;DHT22;24692;45.642;13.806;2023-06-10T12:03:20;29.80;99.90
36444;DHT22;24692;45.642;13.806;2023-06-10T12:06:05;29.80;99.90
36444;DHT22;24692;45.642;13.806;2023-06-10T12:08:31;29.60;99.90
36444;DHT22;24692;45.642;13.806;2023-06-10T12:10:58;29.60;99.90
36444;DHT22;24692;45.642;13.806;2023-06-10T12:13:26;29.70;99.90
36444;DHT22;24692;45.642;13.806;2023-06-10T12:15:52;29.20;99.90
36444;DHT22;24692;45.642;13.806;2023-06-10T12:18:21;29.10;99.90
36444;DHT22;24692;45.642;13.806;2023-06-10T12:20:48;30.30;99.90
36444;DHT22;24692;45.642;13.806;2023-06-10T12:23:19;30.80;99.90
36444;DHT22;24692;45.642;13.806;2023-06-10T12:25:54;30.20;99.90
36444;DHT22;24692;45.642;13.806;2023-06-10T12:28:24;29.60;99.90
36444;DHT22;24692;45.642;13.806;2023-06-10T12:30:50;28.80;99.90
36444;DHT22;24692;45.642;13.806;2023-06-10T12:33:20;27.20;99.90
36444;DHT22;24692;45.642;13.806;2023-06-10T12:35:52;25.60;99.90
36444;DHT22;24692;45.642;13.806;2023-06-10T12:38:22;24.60;99.90
36444;DHT22;24692;45.642;13.806;2023-06-10T12:40:50;24.30;99.90
36444;DHT22;24692;45.642;13.806;2023-06-10T12:43:25;24.10;99.90
36444;DHT22;24692;45.642;13.806;2023-06-10T12:45:51;23.70;99.90
36444;DHT22;24692;45.642;13.806;2023-06-10T12:50:43;23.70;99.90
36444;DHT22;24692;45.642;13.806;2023-06-10T12:53:10;23.70;99.90
36444;DHT22;24692;45.642;13.806;2023-06-10T12:55:37;23.60;99.90
36444;DHT22;24692;45.642;13.806;2023-06-10T12:58:02;23.50;99.90
36444;DHT22;24692;45.642;13.806;2023-06-10T13:00:29;23.40;99.90
36444;DHT22;24692;45.642;13.806;2023-06-10T13:03:00;23.40;99.90
36444;DHT22;24692;45.642;13.806;2023-06-10T13:05:27;23.30;99.90
36444;DHT22;24692;45.642;13.806;2023-06-10T13:07:53;22.80;99.90
36444;DHT22;24692;45.642;13.806;2023-06-10T13:10:21;22.30;99.90
36444;DHT22;24692;45.642;13.806;2023-06-10T13:12:47;22.40;99.90
36444;DHT22;24692;45.642;13.806;2023-06-10T13:15:13;22.40;99.90
36444;DHT22;24692;45.642;13.806;2023-06-10T13:17:40;22.30;99.90
36444;DHT22;24692;45.642;13.806;2023-06-10T13:20:07;22.20;99.90
36444;DHT22;24692;45.642;13.806;2023-06-10T13:22:33;22.50;99.90
36444;DHT22;24692;45.642;13.806;2023-06-10T13:25:04;22.80;99.90
36444;DHT22;24692;45.642;13.806;2023-06-10T13:27:30;22.90;99.90
36444;DHT22;24692;45.642;13.806;2023-06-10T13:29:56;22.80;99.90
36444;DHT22;24692;45.642;13.806;2023-06-10T13:32:22;22.80;99.90
36444;DHT22;24692;45.642;13.806;2023-06-10T13:34:47;22.90;99.90
36444;DHT22;24692;45.642;13.806;2023-06-10T13:37:15;22.70;99.90
36444;DHT22;24692;45.642;13.806;2023-06-10T13:39:43;22.30;99.90
36444;DHT22;24692;45.642;13.806;2023-06-10T13:42:09;22.10;99.90
36444;DHT22;24692;45.642;13.806;2023-06-10T13:44:34;22.20;99.90
36444;DHT22;24692;45.642;13.806;2023-06-10T13:47:02;22.10;99.90
36444;DHT22;24692;45.642;13.806;2023-06-10T13:49:28;22.10;99.90
36444;DHT22;24692;45.642;13.806;2023-06-10T13:51:54;22.30;99.90
36444;DHT22;24692;45.642;13.806;2023-06-10T13:54:20;22.50;99.90
36444;DHT22;24692;45.642;13.806;2023-06-10T13:56:46;22.60;99.90
36444;DHT22;24692;45.642;13.806;2023-06-10T13:59:12;22.90;99.90
36444;DHT22;24692;45.642;13.806;2023-06-10T14:01:38;22.90;99.90
36444;DHT22;24692;45.642;13.806;2023-06-10T14:04:05;23.00;99.90
36444;DHT22;24692;45.642;13.806;2023-06-10T14:06:32;23.20;99.90
36444;DHT22;24692;45.642;13.806;2023-06-10T14:08:59;23.60;99.90
36444;DHT22;24692;45.642;13.806;2023-06-10T14:11:25;23.80;99.90
36444;DHT22;24692;45.642;13.806;2023-06-10T14:13:50;24.10;99.90
36444;DHT22;24692;45.642;13.806;2023-06-10T14:16:16;24.30;99.90
36444;DHT22;24692;45.642;13.806;2023-06-10T14:18:42;24.80;99.90
36444;DHT22;24692;45.642;13.806;2023-06-10T14:21:07;25.00;99.90
36444;DHT22;24692;45.642;13.806;2023-06-10T14:23:33;25.10;99.90
36444;DHT22;24692;45.642;13.806;2023-06-10T14:25:59;25.70;99.90
36444;DHT22;24692;45.642;13.806;2023-06-10T14:28:25;26.90;99.90
36444;DHT22;24692;45.642;13.806;2023-06-10T14:30:53;28.20;99.90
36444;DHT22;24692;45.642;13.806;2023-06-10T14:33:18;28.90;99.90
36444;DHT22;24692;45.642;13.806;2023-06-10T14:35:44;28.90;99.90
36444;DHT22;24692;45.642;13.806;2023-06-10T14:38:10;28.50;99.90
36444;DHT22;24692;45.642;13.806;2023-06-10T14:40:35;28.20;99.90
36444;DHT22;24692;45.642;13.806;2023-06-10T14:43:01;27.90;99.90
36444;DHT22;24692;45.642;13.806;2023-06-10T14:45:29;27.60;99.90
36444;DHT22;24692;45.642;13.806;2023-06-10T14:47:55;27.30;99.90
36444;DHT22;24692;45.642;13.806;2023-06-10T14:50:20;27.00;99.90
36444;DHT22;24692;45.642;13.806;2023-06-10T14:52:46;26.70;99.90
36444;DHT22;24692;45.642;13.806;2023-06-10T14:55:12;26.30;99.90
36444;DHT22;24692;45.642;13.806;2023-06-10T14:57:38;25.80;99.90
36444;DHT22;24692;45.642;13.806;2023-06-10T15:00:04;25.50;99.90
36444;DHT22;24692;45.642;13.806;2023-06-10T15:02:30;25.40;99.90
36444;DHT22;24692;45.642;13.806;2023-06-10T15:04:55;25.30;99.90
36444;DHT22;24692;45.642;13.806;2023-06-10T15:07:21;25.30;99.90
36444;DHT22;24692;45.642;13.806;2023-06-10T15:09:46;25.50;99.90
36444;DHT22;24692;45.642;13.806;2023-06-10T15:12:12;25.70;99.90
36444;DHT22;24692;45.642;13.806;2023-06-10T15:14:38;26.00;99.90
36444;DHT22;24692;45.642;13.806;2023-06-10T15:17:04;26.80;99.90
36444;DHT22;24692;45.642;13.806;2023-06-10T15:19:29;28.10;99.90
36444;DHT22;24692;45.642;13.806;2023-06-10T15:21:55;28.90;99.90
36444;DHT22;24692;45.642;13.806;2023-06-10T15:24:20;29.40;99.90
36444;DHT22;24692;45.642;13.806;2023-06-10T15:26:46;29.50;99.90
36444;DHT22;24692;45.642;13.806;2023-06-10T15:29:12;29.30;99.90
36444;DHT22;24692;45.642;13.806;2023-06-10T15:31:38;28.40;99.90
36444;DHT22;24692;45.642;13.806;2023-06-10T15:34:04;27.50;99.90
36444;DHT22;24692;45.642;13.806;2023-06-10T15:36:30;27.10;99.90
36444;DHT22;24692;45.642;13.806;2023-06-10T15:39:04;27.00;99.90
36444;DHT22;24692;45.642;13.806;2023-06-10T15:41:32;26.90;99.90